sensor_id;sensor_type;location;lat;lon;timestamp;P1;durP1;ratioP1;P2;durP2;ratioP2
10535;SDS011;5316;49.538;8.352;2022-12-10T00:01:20;26.37;;;18.30;;
10535;SDS011;5316;49.538;8.352;2022-12-10T00:03:48;24.97;;;18.57;;
10535;SDS011;5316;49.538;8.352;2022-12-10T00:06:16;26.50;;;18.17;;
10535;SDS011;5316;49.538;8.352;2022-12-10T00:08:44;24.20;;;17.70;;
10535;SDS011;5316;49.538;8.352;2022-12-10T00:11:11;26.57;;;18.27;;
10535;SDS011;5316;49.538;8.352;2022-12-10T00:13:42;24.23;;;18.57;;
10535;SDS011;5316;49.538;8.352;2022-12-10T00:16:11;23.87;;;17.90;;
10535;SDS011;5316;49.538;8.352;2022-12-10T00:18:40;25.37;;;18.40;;
10535;SDS011;5316;49.538;8.352;2022-12-10T00:21:07;26.47;;;18.80;;
10535;SDS011;5316;49.538;8.352;2022-12-10T00:23:36;24.63;;;18.43;;
10535;SDS011;5316;49.538;8.352;2022-12-10T00:26:04;24.23;;;17.50;;
10535;SDS011;5316;49.538;8.352;2022-12-10T00:28:32;25.80;;;18.77;;
10535;SDS011;5316;49.538;8.352;2022-12-10T00:31:04;26.03;;;18.23;;
10535;SDS011;5316;49.538;8.352;2022-12-10T00:33:32;24.87;;;18.77;;
10535;SDS011;5316;49.538;8.352;2022-12-10T00:36:01;25.23;;;18.73;;
10535;SDS011;5316;49.538;8.352;2022-12-10T00:38:28;25.10;;;18.43;;
10535;SDS011;5316;49.538;8.352;2022-12-10T00:40:55;24.47;;;18.23;;
10535;SDS011;5316;49.538;8.352;2022-12-10T00:43:22;24.77;;;18.30;;
10535;SDS011;5316;49.538;8.352;2022-12-10T00:45:49;24.73;;;18.40;;
10535;SDS011;5316;49.538;8.352;2022-12-10T00:48:17;23.70;;;17.60;;
10535;SDS011;5316;49.538;8.352;2022-12-10T00:50:44;25.10;;;18.07;;
10535;SDS011;5316;49.538;8.352;2022-12-10T00:53:19;25.30;;;18.40;;
10535;SDS011;5316;49.538;8.352;2022-12-10T00:55:46;28.80;;;20.00;;
10535;SDS011;5316;49.538;8.352;2022-12-10T00:58:13;28.47;;;19.50;;
10535;SDS011;5316;49.538;8.352;2022-12-10T01:00:40;29.90;;;20.93;;
10535;SDS011;5316;49.538;8.352;2022-12-10T01:03:07;28.40;;;19.43;;
10535;SDS011;5316;49.538;8.352;2022-12-10T01:16:24;29.03;;;19.60;;
10535;SDS011;5316;49.538;8.352;2022-12-10T01:18:42;27.73;;;19.27;;
10535;SDS011;5316;49.538;8.352;2022-12-10T01:21:43;25.40;;;18.80;;
10535;SDS011;5316;49.538;8.352;2022-12-10T01:31:20;24.97;;;18.63;;
10535;SDS011;5316;49.538;8.352;2022-12-10T01:41:36;26.67;;;19.00;;
10535;SDS011;5316;49.538;8.352;2022-12-10T01:45:18;27.40;;;18.63;;
10535;SDS011;5316;49.538;8.352;2022-12-10T01:48:09;26.37;;;19.20;;
10535;SDS011;5316;49.538;8.352;2022-12-10T01:51:24;25.10;;;19.10;;
10535;SDS011;5316;49.538;8.352;2022-12-10T01:54:37;26.33;;;19.40;;
10535;SDS011;5316;49.538;8.352;2022-12-10T02:00:50;31.20;;;20.03;;
10535;SDS011;5316;49.538;8.352;2022-12-10T02:13:37;27.60;;;20.63;;
10535;SDS011;5316;49.538;8.352;2022-12-10T02:16:51;28.10;;;19.13;;
10535;SDS011;5316;49.538;8.352;2022-12-10T02:21:13;27.80;;;19.27;;
10535;SDS011;5316;49.538;8.352;2022-12-10T02:25:29;31.00;;;19.97;;
10535;SDS011;5316;49.538;8.352;2022-12-10T02:26:19;30.97;;;20.47;;
10535;SDS011;5316;49.538;8.352;2022-12-10T02:29:47;30.30;;;19.83;;
10535;SDS011;5316;49.538;8.352;2022-12-10T02:32:40;27.20;;;19.53;;
10535;SDS011;5316;49.538;8.352;2022-12-10T02:38:54;27.93;;;20.00;;
10535;SDS011;5316;49.538;8.352;2022-12-10T02:41:55;28.80;;;18.97;;
10535;SDS011;5316;49.538;8.352;2022-12-10T02:44:59;30.27;;;20.20;;
10535;SDS011;5316;49.538;8.352;2022-12-10T02:48:00;29.37;;;19.93;;
10535;SDS011;5316;49.538;8.352;2022-12-10T02:50:48;27.73;;;19.53;;
10535;SDS011;5316;49.538;8.352;2022-12-10T02:53:24;27.83;;;18.70;;
10535;SDS011;5316;49.538;8.352;2022-12-10T02:55:59;27.60;;;19.67;;
10535;SDS011;5316;49.538;8.352;2022-12-10T02:58:41;30.17;;;21.03;;
10535;SDS011;5316;49.538;8.352;2022-12-10T03:01:46;30.67;;;20.17;;
10535;SDS011;5316;49.538;8.352;2022-12-10T03:04:36;30.10;;;19.90;;
10535;SDS011;5316;49.538;8.352;2022-12-10T03:07:16;29.33;;;19.80;;
10535;SDS011;5316;49.538;8.352;2022-12-10T03:12:46;29.80;;;20.77;;
10535;SDS011;5316;49.538;8.352;2022-12-10T03:15:33;28.07;;;18.83;;
10535;SDS011;5316;49.538;8.352;2022-12-10T03:18:13;27.53;;;19.17;;
10535;SDS011;5316;49.538;8.352;2022-12-10T03:21:15;27.60;;;19.43;;
10535;SDS011;5316;49.538;8.352;2022-12-10T03:26:37;26.10;;;18.80;;
10535;SDS011;5316;49.538;8.352;2022-12-10T03:29:15;29.63;;;19.67;;
10535;SDS011;5316;49.538;8.352;2022-12-10T03:32:02;27.50;;;19.33;;
10535;SDS011;5316;49.538;8.352;2022-12-10T03:34:37;26.67;;;18.60;;
10535;SDS011;5316;49.538;8.352;2022-12-10T03:37:33;27.90;;;19.07;;
10535;SDS011;5316;49.538;8.352;2022-12-10T03:40:06;25.07;;;17.97;;
10535;SDS011;5316;49.538;8.352;2022-12-10T03:42:38;27.73;;;17.90;;
10535;SDS011;5316;49.538;8.352;2022-12-10T03:45:12;24.33;;;18.20;;
10535;SDS011;5316;49.538;8.352;2022-12-10T03:47:41;27.57;;;18.87;;
10535;SDS011;5316;49.538;8.352;2022-12-10T03:50:24;25.53;;;17.90;;
10535;SDS011;5316;49.538;8.352;2022-12-10T03:53:07;27.40;;;19.20;;
10535;SDS011;5316;49.538;8.352;2022-12-10T03:55:36;27.90;;;18.87;;
10535;SDS011;5316;49.538;8.352;2022-12-10T03:58:18;25.73;;;16.93;;
10535;SDS011;5316;49.538;8.352;2022-12-10T04:01:13;25.70;;;17.00;;
10535;SDS011;5316;49.538;8.352;2022-12-10T04:03:53;26.00;;;17.20;;
10535;SDS011;5316;49.538;8.352;2022-12-10T04:06:25;23.30;;;17.17;;
10535;SDS011;5316;49.538;8.352;2022-12-10T04:09:02;27.13;;;18.30;;
10535;SDS011;5316;49.538;8.352;2022-12-10T04:12:02;25.37;;;17.53;;
10535;SDS011;5316;49.538;8.352;2022-12-10T04:14:49;27.20;;;18.07;;
10535;SDS011;5316;49.538;8.352;2022-12-10T04:17:37;25.63;;;18.10;;
10535;SDS011;5316;49.538;8.352;2022-12-10T04:20:09;26.47;;;17.40;;
10535;SDS011;5316;49.538;8.352;2022-12-10T04:23:02;23.90;;;16.97;;
10535;SDS011;5316;49.538;8.352;2022-12-10T04:25:51;24.57;;;16.97;;
10535;SDS011;5316;49.538;8.352;2022-12-10T04:28:34;23.83;;;17.10;;
10535;SDS011;5316;49.538;8.352;2022-12-10T04:31:05;25.87;;;18.20;;
10535;SDS011;5316;49.538;8.352;2022-12-10T04:33:40;22.97;;;16.87;;
10535;SDS011;5316;49.538;8.352;2022-12-10T04:36:11;26.40;;;18.17;;
10535;SDS011;5316;49.538;8.352;2022-12-10T04:38:40;24.70;;;17.40;;
10535;SDS011;5316;49.538;8.352;2022-12-10T04:41:11;26.07;;;17.60;;
10535;SDS011;5316;49.538;8.352;2022-12-10T04:43:45;26.90;;;18.07;;
10535;SDS011;5316;49.538;8.352;2022-12-10T04:46:28;26.37;;;17.53;;
10535;SDS011;5316;49.538;8.352;2022-12-10T04:49:05;24.70;;;16.97;;
10535;SDS011;5316;49.538;8.352;2022-12-10T04:51:49;25.13;;;17.60;;
10535;SDS011;5316;49.538;8.352;2022-12-10T04:54:42;25.03;;;17.27;;
10535;SDS011;5316;49.538;8.352;2022-12-10T04:57:17;23.90;;;17.53;;
10535;SDS011;5316;49.538;8.352;2022-12-10T05:09:06;23.53;;;15.47;;
10535;SDS011;5316;49.538;8.352;2022-12-10T05:11:42;19.87;;;15.00;;
10535;SDS011;5316;49.538;8.352;2022-12-10T05:14:15;20.53;;;15.67;;
10535;SDS011;5316;49.538;8.352;2022-12-10T05:16:49;20.83;;;15.87;;
10535;SDS011;5316;49.538;8.352;2022-12-10T05:19:19;20.63;;;15.50;;
10535;SDS011;5316;49.538;8.352;2022-12-10T05:21:58;24.70;;;16.73;;
10535;SDS011;5316;49.538;8.352;2022-12-10T05:24:45;21.07;;;15.23;;
10535;SDS011;5316;49.538;8.352;2022-12-10T05:27:14;21.60;;;15.50;;
10535;SDS011;5316;49.538;8.352;2022-12-10T05:29:42;22.10;;;14.97;;
10535;SDS011;5316;49.538;8.352;2022-12-10T05:32:09;21.77;;;15.57;;
10535;SDS011;5316;49.538;8.352;2022-12-10T05:34:38;22.00;;;15.47;;
10535;SDS011;5316;49.538;8.352;2022-12-10T05:37:11;20.53;;;14.93;;
10535;SDS011;5316;49.538;8.352;2022-12-10T05:39:39;19.27;;;14.57;;
10535;SDS011;5316;49.538;8.352;2022-12-10T05:42:06;18.73;;;14.33;;
10535;SDS011;5316;49.538;8.352;2022-12-10T05:44:36;18.90;;;13.97;;
10535;SDS011;5316;49.538;8.352;2022-12-10T05:47:05;19.60;;;13.87;;
10535;SDS011;5316;49.538;8.352;2022-12-10T05:49:33;18.00;;;13.10;;
10535;SDS011;5316;49.538;8.352;2022-12-10T05:52:05;18.67;;;13.63;;
10535;SDS011;5316;49.538;8.352;2022-12-10T05:54:33;18.40;;;12.93;;
10535;SDS011;5316;49.538;8.352;2022-12-10T05:57:18;18.57;;;13.80;;
10535;SDS011;5316;49.538;8.352;2022-12-10T05:59:51;19.10;;;14.03;;
10535;SDS011;5316;49.538;8.352;2022-12-10T06:02:24;17.87;;;13.70;;
10535;SDS011;5316;49.538;8.352;2022-12-10T06:04:59;17.13;;;13.27;;
10535;SDS011;5316;49.538;8.352;2022-12-10T06:07:33;19.10;;;14.43;;
10535;SDS011;5316;49.538;8.352;2022-12-10T06:10:09;16.30;;;12.27;;
10535;SDS011;5316;49.538;8.352;2022-12-10T06:12:49;14.87;;;11.77;;
10535;SDS011;5316;49.538;8.352;2022-12-10T06:15:59;18.93;;;12.77;;
10535;SDS011;5316;49.538;8.352;2022-12-10T06:18:44;15.83;;;12.23;;
10535;SDS011;5316;49.538;8.352;2022-12-10T06:21:16;16.10;;;12.27;;
10535;SDS011;5316;49.538;8.352;2022-12-10T06:23:55;16.13;;;11.87;;
10535;SDS011;5316;49.538;8.352;2022-12-10T06:26:28;15.63;;;13.00;;
10535;SDS011;5316;49.538;8.352;2022-12-10T06:29:14;15.57;;;12.27;;
10535;SDS011;5316;49.538;8.352;2022-12-10T06:31:52;17.27;;;11.93;;
10535;SDS011;5316;49.538;8.352;2022-12-10T06:34:28;15.43;;;11.67;;
10535;SDS011;5316;49.538;8.352;2022-12-10T06:37:03;14.67;;;11.43;;
10535;SDS011;5316;49.538;8.352;2022-12-10T06:39:50;17.13;;;11.30;;
10535;SDS011;5316;49.538;8.352;2022-12-10T06:42:46;16.53;;;12.20;;
10535;SDS011;5316;49.538;8.352;2022-12-10T06:45:39;15.57;;;11.70;;
10535;SDS011;5316;49.538;8.352;2022-12-10T06:48:14;15.23;;;11.87;;
10535;SDS011;5316;49.538;8.352;2022-12-10T06:50:42;16.07;;;11.20;;
10535;SDS011;5316;49.538;8.352;2022-12-10T06:53:09;15.60;;;12.53;;
10535;SDS011;5316;49.538;8.352;2022-12-10T06:55:37;15.40;;;12.43;;
10535;SDS011;5316;49.538;8.352;2022-12-10T06:58:06;16.33;;;12.10;;
10535;SDS011;5316;49.538;8.352;2022-12-10T07:00:35;15.23;;;12.27;;
10535;SDS011;5316;49.538;8.352;2022-12-10T07:03:04;17.30;;;12.60;;
10535;SDS011;5316;49.538;8.352;2022-12-10T07:05:33;16.80;;;12.57;;
10535;SDS011;5316;49.538;8.352;2022-12-10T07:08:03;17.73;;;12.60;;
10535;SDS011;5316;49.538;8.352;2022-12-10T07:10:30;18.33;;;13.13;;
10535;SDS011;5316;49.538;8.352;2022-12-10T07:12:56;18.70;;;13.17;;
10535;SDS011;5316;49.538;8.352;2022-12-10T07:15:25;17.97;;;12.67;;
10535;SDS011;5316;49.538;8.352;2022-12-10T07:17:53;15.70;;;12.20;;
10535;SDS011;5316;49.538;8.352;2022-12-10T07:20:20;18.53;;;14.07;;
10535;SDS011;5316;49.538;8.352;2022-12-10T07:22:48;19.40;;;13.17;;
10535;SDS011;5316;49.538;8.352;2022-12-10T07:25:15;17.57;;;12.47;;
10535;SDS011;5316;49.538;8.352;2022-12-10T07:27:42;18.13;;;12.90;;
10535;SDS011;5316;49.538;8.352;2022-12-10T07:30:09;17.93;;;12.47;;
10535;SDS011;5316;49.538;8.352;2022-12-10T07:32:36;15.73;;;11.97;;
10535;SDS011;5316;49.538;8.352;2022-12-10T07:35:03;16.10;;;12.43;;
10535;SDS011;5316;49.538;8.352;2022-12-10T07:37:31;18.63;;;13.27;;
10535;SDS011;5316;49.538;8.352;2022-12-10T07:40:00;18.20;;;13.07;;
10535;SDS011;5316;49.538;8.352;2022-12-10T07:42:27;18.63;;;13.90;;
10535;SDS011;5316;49.538;8.352;2022-12-10T07:44:54;18.43;;;13.07;;
10535;SDS011;5316;49.538;8.352;2022-12-10T07:47:20;21.33;;;15.47;;
10535;SDS011;5316;49.538;8.352;2022-12-10T07:49:47;19.47;;;14.03;;
10535;SDS011;5316;49.538;8.352;2022-12-10T07:52:14;16.70;;;13.53;;
10535;SDS011;5316;49.538;8.352;2022-12-10T07:54:42;18.97;;;13.80;;
10535;SDS011;5316;49.538;8.352;2022-12-10T07:57:10;18.03;;;13.40;;
10535;SDS011;5316;49.538;8.352;2022-12-10T07:59:40;18.73;;;13.60;;
10535;SDS011;5316;49.538;8.352;2022-12-10T08:02:08;17.53;;;14.47;;
10535;SDS011;5316;49.538;8.352;2022-12-10T08:04:35;19.30;;;14.97;;
10535;SDS011;5316;49.538;8.352;2022-12-10T08:07:02;15.13;;;12.67;;
10535;SDS011;5316;49.538;8.352;2022-12-10T08:09:29;16.70;;;12.93;;
10535;SDS011;5316;49.538;8.352;2022-12-10T08:11:56;18.17;;;13.53;;
10535;SDS011;5316;49.538;8.352;2022-12-10T08:14:25;16.87;;;12.67;;
10535;SDS011;5316;49.538;8.352;2022-12-10T08:16:52;16.13;;;12.30;;
10535;SDS011;5316;49.538;8.352;2022-12-10T08:19:18;17.10;;;11.63;;
10535;SDS011;5316;49.538;8.352;2022-12-10T08:21:45;14.87;;;11.50;;
10535;SDS011;5316;49.538;8.352;2022-12-10T08:24:12;14.43;;;11.17;;
10535;SDS011;5316;49.538;8.352;2022-12-10T08:26:39;14.27;;;11.40;;
10535;SDS011;5316;49.538;8.352;2022-12-10T08:29:06;14.37;;;11.40;;
10535;SDS011;5316;49.538;8.352;2022-12-10T08:31:34;14.90;;;11.53;;
10535;SDS011;5316;49.538;8.352;2022-12-10T08:34:01;13.70;;;11.50;;
10535;SDS011;5316;49.538;8.352;2022-12-10T08:36:29;13.87;;;10.97;;
10535;SDS011;5316;49.538;8.352;2022-12-10T08:38:56;13.90;;;11.43;;
10535;SDS011;5316;49.538;8.352;2022-12-10T08:41:24;14.83;;;11.63;;
10535;SDS011;5316;49.538;8.352;2022-12-10T08:43:51;14.00;;;11.77;;
10535;SDS011;5316;49.538;8.352;2022-12-10T08:46:21;14.10;;;10.73;;
10535;SDS011;5316;49.538;8.352;2022-12-10T08:48:49;13.50;;;10.83;;
10535;SDS011;5316;49.538;8.352;2022-12-10T08:51:16;12.87;;;10.47;;
10535;SDS011;5316;49.538;8.352;2022-12-10T08:53:45;12.47;;;11.07;;
10535;SDS011;5316;49.538;8.352;2022-12-10T08:56:12;13.37;;;10.97;;
10535;SDS011;5316;49.538;8.352;2022-12-10T08:58:39;11.90;;;10.53;;
10535;SDS011;5316;49.538;8.352;2022-12-10T09:01:07;12.43;;;10.43;;
10535;SDS011;5316;49.538;8.352;2022-12-10T09:03:34;13.77;;;11.13;;
10535;SDS011;5316;49.538;8.352;2022-12-10T09:06:03;17.60;;;12.70;;
10535;SDS011;5316;49.538;8.352;2022-12-10T09:08:31;12.53;;;10.37;;
10535;SDS011;5316;49.538;8.352;2022-12-10T09:10:58;56.63;;;22.50;;
10535;SDS011;5316;49.538;8.352;2022-12-10T09:13:31;17.73;;;11.67;;
10535;SDS011;5316;49.538;8.352;2022-12-10T09:15:57;25.90;;;14.63;;
10535;SDS011;5316;49.538;8.352;2022-12-10T09:18:24;31.97;;;17.23;;
10535;SDS011;5316;49.538;8.352;2022-12-10T09:20:51;20.50;;;12.70;;
10535;SDS011;5316;49.538;8.352;2022-12-10T09:23:19;15.83;;;11.13;;
10535;SDS011;5316;49.538;8.352;2022-12-10T09:25:46;15.10;;;12.30;;
10535;SDS011;5316;49.538;8.352;2022-12-10T09:28:13;14.23;;;11.67;;
10535;SDS011;5316;49.538;8.352;2022-12-10T09:30:40;14.93;;;11.77;;
10535;SDS011;5316;49.538;8.352;2022-12-10T09:33:07;14.87;;;11.20;;
10535;SDS011;5316;49.538;8.352;2022-12-10T09:35:34;14.73;;;11.53;;
10535;SDS011;5316;49.538;8.352;2022-12-10T09:38:00;16.10;;;12.20;;
10535;SDS011;5316;49.538;8.352;2022-12-10T09:40:32;14.93;;;11.77;;
10535;SDS011;5316;49.538;8.352;2022-12-10T09:43:04;16.43;;;12.40;;
10535;SDS011;5316;49.538;8.352;2022-12-10T09:45:44;15.13;;;11.70;;
10535;SDS011;5316;49.538;8.352;2022-12-10T09:48:20;13.60;;;10.77;;
10535;SDS011;5316;49.538;8.352;2022-12-10T09:50:53;16.97;;;12.20;;
10535;SDS011;5316;49.538;8.352;2022-12-10T09:53:25;12.87;;;10.50;;
10535;SDS011;5316;49.538;8.352;2022-12-10T09:55:55;12.57;;;10.43;;
10535;SDS011;5316;49.538;8.352;2022-12-10T09:58:25;15.30;;;11.33;;
10535;SDS011;5316;49.538;8.352;2022-12-10T10:00:54;12.03;;;10.73;;
10535;SDS011;5316;49.538;8.352;2022-12-10T10:03:23;12.17;;;10.17;;
10535;SDS011;5316;49.538;8.352;2022-12-10T10:05:51;12.50;;;10.37;;
10535;SDS011;5316;49.538;8.352;2022-12-10T10:08:22;12.50;;;10.57;;
10535;SDS011;5316;49.538;8.352;2022-12-10T10:10:53;12.80;;;9.90;;
10535;SDS011;5316;49.538;8.352;2022-12-10T10:13:24;13.27;;;10.27;;
10535;SDS011;5316;49.538;8.352;2022-12-10T10:15:56;12.90;;;10.50;;
10535;SDS011;5316;49.538;8.352;2022-12-10T10:18:28;12.73;;;9.53;;
10535;SDS011;5316;49.538;8.352;2022-12-10T10:21:00;15.40;;;10.77;;
10535;SDS011;5316;49.538;8.352;2022-12-10T10:23:27;12.03;;;9.77;;
10535;SDS011;5316;49.538;8.352;2022-12-10T10:25:54;11.10;;;9.70;;
10535;SDS011;5316;49.538;8.352;2022-12-10T10:28:22;12.60;;;9.77;;
10535;SDS011;5316;49.538;8.352;2022-12-10T10:30:50;12.33;;;9.43;;
10535;SDS011;5316;49.538;8.352;2022-12-10T10:33:18;9.20;;;8.30;;
10535;SDS011;5316;49.538;8.352;2022-12-10T10:35:46;9.67;;;8.60;;
10535;SDS011;5316;49.538;8.352;2022-12-10T10:38:17;10.50;;;8.53;;
10535;SDS011;5316;49.538;8.352;2022-12-10T10:40:49;12.17;;;9.70;;
10535;SDS011;5316;49.538;8.352;2022-12-10T10:43:19;37.70;;;14.40;;
10535;SDS011;5316;49.538;8.352;2022-12-10T10:45:51;19.87;;;12.03;;
10535;SDS011;5316;49.538;8.352;2022-12-10T10:48:19;14.00;;;9.77;;
10535;SDS011;5316;49.538;8.352;2022-12-10T10:50:48;10.23;;;9.03;;
10535;SDS011;5316;49.538;8.352;2022-12-10T10:53:21;11.73;;;9.40;;
10535;SDS011;5316;49.538;8.352;2022-12-10T10:55:57;10.73;;;9.00;;
10535;SDS011;5316;49.538;8.352;2022-12-10T10:58:27;13.07;;;9.50;;
10535;SDS011;5316;49.538;8.352;2022-12-10T11:00:56;11.33;;;9.40;;
10535;SDS011;5316;49.538;8.352;2022-12-10T11:03:25;11.10;;;9.00;;
10535;SDS011;5316;49.538;8.352;2022-12-10T11:05:53;72.80;;;24.93;;
10535;SDS011;5316;49.538;8.352;2022-12-10T11:08:24;13.50;;;10.40;;
10535;SDS011;5316;49.538;8.352;2022-12-10T11:10:55;13.57;;;10.50;;
10535;SDS011;5316;49.538;8.352;2022-12-10T11:13:27;18.53;;;11.27;;
10535;SDS011;5316;49.538;8.352;2022-12-10T11:15:57;13.57;;;10.10;;
10535;SDS011;5316;49.538;8.352;2022-12-10T11:18:29;13.00;;;9.53;;
10535;SDS011;5316;49.538;8.352;2022-12-10T11:20:59;10.80;;;9.53;;
10535;SDS011;5316;49.538;8.352;2022-12-10T11:23:29;12.67;;;10.10;;
10535;SDS011;5316;49.538;8.352;2022-12-10T11:26:02;10.03;;;8.70;;
10535;SDS011;5316;49.538;8.352;2022-12-10T11:28:40;8.97;;;7.73;;
10535;SDS011;5316;49.538;8.352;2022-12-10T11:31:22;10.40;;;8.97;;
10535;SDS011;5316;49.538;8.352;2022-12-10T11:33:58;11.33;;;9.00;;
10535;SDS011;5316;49.538;8.352;2022-12-10T11:36:32;9.33;;;8.27;;
10535;SDS011;5316;49.538;8.352;2022-12-10T11:39:10;11.17;;;8.70;;
10535;SDS011;5316;49.538;8.352;2022-12-10T11:41:53;10.93;;;8.93;;
10535;SDS011;5316;49.538;8.352;2022-12-10T11:44:31;11.17;;;9.67;;
10535;SDS011;5316;49.538;8.352;2022-12-10T11:47:09;23.50;;;13.30;;
10535;SDS011;5316;49.538;8.352;2022-12-10T11:49:53;11.57;;;9.07;;
10535;SDS011;5316;49.538;8.352;2022-12-10T11:52:36;12.00;;;9.73;;
10535;SDS011;5316;49.538;8.352;2022-12-10T11:55:13;11.23;;;9.33;;
10535;SDS011;5316;49.538;8.352;2022-12-10T11:57:48;10.60;;;8.70;;
10535;SDS011;5316;49.538;8.352;2022-12-10T12:00:20;9.03;;;8.13;;
10535;SDS011;5316;49.538;8.352;2022-12-10T12:03:08;9.67;;;8.57;;
10535;SDS011;5316;49.538;8.352;2022-12-10T12:05:52;11.03;;;8.50;;
10535;SDS011;5316;49.538;8.352;2022-12-10T12:08:32;10.10;;;8.90;;
10535;SDS011;5316;49.538;8.352;2022-12-10T12:11:18;11.03;;;9.20;;
10535;SDS011;5316;49.538;8.352;2022-12-10T12:13:53;13.53;;;9.57;;
10535;SDS011;5316;49.538;8.352;2022-12-10T12:16:26;10.73;;;9.63;;
10535;SDS011;5316;49.538;8.352;2022-12-10T12:19:00;11.90;;;8.90;;
10535;SDS011;5316;49.538;8.352;2022-12-10T12:21:29;10.63;;;9.53;;
10535;SDS011;5316;49.538;8.352;2022-12-10T12:23:56;10.23;;;9.10;;
10535;SDS011;5316;49.538;8.352;2022-12-10T12:26:27;10.47;;;8.90;;
10535;SDS011;5316;49.538;8.352;2022-12-10T12:28:59;11.43;;;10.03;;
10535;SDS011;5316;49.538;8.352;2022-12-10T12:31:34;12.97;;;10.17;;
10535;SDS011;5316;49.538;8.352;2022-12-10T12:34:10;11.33;;;9.73;;
10535;SDS011;5316;49.538;8.352;2022-12-10T12:36:43;11.90;;;9.87;;
10535;SDS011;5316;49.538;8.352;2022-12-10T12:39:13;11.23;;;9.40;;
10535;SDS011;5316;49.538;8.352;2022-12-10T12:41:46;11.47;;;9.50;;
10535;SDS011;5316;49.538;8.352;2022-12-10T12:44:21;10.50;;;9.33;;
10535;SDS011;5316;49.538;8.352;2022-12-10T12:46:55;12.17;;;10.33;;
10535;SDS011;5316;49.538;8.352;2022-12-10T12:49:26;12.43;;;10.37;;
10535;SDS011;5316;49.538;8.352;2022-12-10T12:51:58;11.53;;;9.97;;
10535;SDS011;5316;49.538;8.352;2022-12-10T12:54:28;12.70;;;11.13;;
10535;SDS011;5316;49.538;8.352;2022-12-10T12:56:57;13.70;;;10.70;;
10535;SDS011;5316;49.538;8.352;2022-12-10T12:59:32;12.47;;;10.43;;
10535;SDS011;5316;49.538;8.352;2022-12-10T13:02:08;11.40;;;9.87;;
10535;SDS011;5316;49.538;8.352;2022-12-10T13:04:48;12.93;;;10.77;;
10535;SDS011;5316;49.538;8.352;2022-12-10T13:07:27;13.27;;;11.73;;
10535;SDS011;5316;49.538;8.352;2022-12-10T13:10:08;12.87;;;10.37;;
10535;SDS011;5316;49.538;8.352;2022-12-10T13:13:15;12.43;;;10.37;;
10535;SDS011;5316;49.538;8.352;2022-12-10T13:15:48;12.03;;;10.63;;
10535;SDS011;5316;49.538;8.352;2022-12-10T13:18:21;14.13;;;11.67;;
10535;SDS011;5316;49.538;8.352;2022-12-10T13:21:27;11.23;;;9.57;;
10535;SDS011;5316;49.538;8.352;2022-12-10T13:24:05;13.83;;;10.47;;
10535;SDS011;5316;49.538;8.352;2022-12-10T13:26:33;11.07;;;9.87;;
10535;SDS011;5316;49.538;8.352;2022-12-10T13:29:12;10.90;;;9.67;;
10535;SDS011;5316;49.538;8.352;2022-12-10T13:31:54;13.23;;;9.97;;
10535;SDS011;5316;49.538;8.352;2022-12-10T13:34:23;8.60;;;7.70;;
10535;SDS011;5316;49.538;8.352;2022-12-10T13:37:10;11.67;;;9.60;;
10535;SDS011;5316;49.538;8.352;2022-12-10T13:40:12;11.73;;;9.27;;
10535;SDS011;5316;49.538;8.352;2022-12-10T13:42:54;11.70;;;8.90;;
10535;SDS011;5316;49.538;8.352;2022-12-10T13:48:52;9.20;;;8.17;;
10535;SDS011;5316;49.538;8.352;2022-12-10T13:51:23;12.17;;;9.43;;
10535;SDS011;5316;49.538;8.352;2022-12-10T13:57:01;10.83;;;9.20;;
10535;SDS011;5316;49.538;8.352;2022-12-10T13:59:38;10.10;;;8.77;;
10535;SDS011;5316;49.538;8.352;2022-12-10T14:02:23;10.70;;;9.60;;
10535;SDS011;5316;49.538;8.352;2022-12-10T14:05:07;13.13;;;9.43;;
10535;SDS011;5316;49.538;8.352;2022-12-10T14:07:50;9.60;;;8.43;;
10535;SDS011;5316;49.538;8.352;2022-12-10T14:10:23;10.00;;;8.73;;
10535;SDS011;5316;49.538;8.352;2022-12-10T14:12:56;10.00;;;9.00;;
10535;SDS011;5316;49.538;8.352;2022-12-10T14:15:29;10.43;;;9.33;;
10535;SDS011;5316;49.538;8.352;2022-12-10T14:18:02;11.57;;;8.67;;
10535;SDS011;5316;49.538;8.352;2022-12-10T14:20:32;10.53;;;9.43;;
10535;SDS011;5316;49.538;8.352;2022-12-10T14:23:02;11.27;;;9.00;;
10535;SDS011;5316;49.538;8.352;2022-12-10T14:25:46;10.40;;;9.30;;
10535;SDS011;5316;49.538;8.352;2022-12-10T14:28:14;11.47;;;9.50;;
10535;SDS011;5316;49.538;8.352;2022-12-10T14:30:42;10.63;;;9.53;;
10535;SDS011;5316;49.538;8.352;2022-12-10T14:33:12;12.30;;;9.93;;
10535;SDS011;5316;49.538;8.352;2022-12-10T14:35:42;12.60;;;10.57;;
10535;SDS011;5316;49.538;8.352;2022-12-10T14:38:16;11.93;;;10.33;;
10535;SDS011;5316;49.538;8.352;2022-12-10T14:40:49;11.33;;;9.80;;
10535;SDS011;5316;49.538;8.352;2022-12-10T14:43:17;12.63;;;9.87;;
10535;SDS011;5316;49.538;8.352;2022-12-10T14:45:47;12.47;;;9.90;;
10535;SDS011;5316;49.538;8.352;2022-12-10T14:48:17;12.23;;;10.47;;
10535;SDS011;5316;49.538;8.352;2022-12-10T14:50:45;13.03;;;10.40;;
10535;SDS011;5316;49.538;8.352;2022-12-10T14:53:13;13.87;;;10.57;;
10535;SDS011;5316;49.538;8.352;2022-12-10T14:55:41;11.27;;;9.87;;
10535;SDS011;5316;49.538;8.352;2022-12-10T14:58:13;15.63;;;10.93;;
10535;SDS011;5316;49.538;8.352;2022-12-10T15:00:43;13.60;;;11.03;;
10535;SDS011;5316;49.538;8.352;2022-12-10T15:03:12;11.90;;;10.00;;
10535;SDS011;5316;49.538;8.352;2022-12-10T15:05:53;12.70;;;10.73;;
10535;SDS011;5316;49.538;8.352;2022-12-10T15:08:21;12.87;;;10.37;;
10535;SDS011;5316;49.538;8.352;2022-12-10T15:10:50;12.63;;;10.60;;
10535;SDS011;5316;49.538;8.352;2022-12-10T15:13:21;12.27;;;10.97;;
10535;SDS011;5316;49.538;8.352;2022-12-10T15:15:51;24.70;;;15.87;;
10535;SDS011;5316;49.538;8.352;2022-12-10T15:18:19;15.73;;;12.07;;
10535;SDS011;5316;49.538;8.352;2022-12-10T15:21:01;14.37;;;11.40;;
10535;SDS011;5316;49.538;8.352;2022-12-10T15:23:31;13.57;;;11.30;;
10535;SDS011;5316;49.538;8.352;2022-12-10T15:26:03;14.83;;;11.20;;
10535;SDS011;5316;49.538;8.352;2022-12-10T15:28:39;14.13;;;11.60;;
10535;SDS011;5316;49.538;8.352;2022-12-10T15:31:11;14.10;;;11.43;;
10535;SDS011;5316;49.538;8.352;2022-12-10T15:33:41;15.53;;;12.40;;
10535;SDS011;5316;49.538;8.352;2022-12-10T15:36:15;14.40;;;11.83;;
10535;SDS011;5316;49.538;8.352;2022-12-10T15:38:45;15.90;;;12.67;;
10535;SDS011;5316;49.538;8.352;2022-12-10T15:41:23;13.47;;;12.03;;
10535;SDS011;5316;49.538;8.352;2022-12-10T15:44:00;18.63;;;13.37;;
10535;SDS011;5316;49.538;8.352;2022-12-10T15:46:29;17.07;;;13.43;;
10535;SDS011;5316;49.538;8.352;2022-12-10T15:48:57;15.60;;;12.50;;
10535;SDS011;5316;49.538;8.352;2022-12-10T15:51:25;14.17;;;11.87;;
10535;SDS011;5316;49.538;8.352;2022-12-10T15:53:52;15.90;;;12.70;;
10535;SDS011;5316;49.538;8.352;2022-12-10T15:56:19;17.17;;;13.30;;
10535;SDS011;5316;49.538;8.352;2022-12-10T15:58:46;17.57;;;14.03;;
10535;SDS011;5316;49.538;8.352;2022-12-10T16:01:14;17.30;;;13.17;;
10535;SDS011;5316;49.538;8.352;2022-12-10T16:03:44;15.33;;;12.87;;
10535;SDS011;5316;49.538;8.352;2022-12-10T16:06:11;16.13;;;12.67;;
10535;SDS011;5316;49.538;8.352;2022-12-10T16:08:39;16.97;;;12.23;;
10535;SDS011;5316;49.538;8.352;2022-12-10T16:11:09;15.77;;;12.83;;
10535;SDS011;5316;49.538;8.352;2022-12-10T16:13:41;15.63;;;12.30;;
10535;SDS011;5316;49.538;8.352;2022-12-10T16:16:16;15.93;;;12.53;;
10535;SDS011;5316;49.538;8.352;2022-12-10T16:18:43;15.37;;;12.23;;
10535;SDS011;5316;49.538;8.352;2022-12-10T16:21:11;19.23;;;13.80;;
10535;SDS011;5316;49.538;8.352;2022-12-10T16:23:47;17.83;;;13.13;;
10535;SDS011;5316;49.538;8.352;2022-12-10T16:26:16;16.30;;;13.17;;